Time,TemperatureF,DewpointF,PressureIn,WindDirection,WindDirectionDegrees,WindSpeedMPH,WindSpeedGustMPH,Humidity,HourlyPrecipIn,Conditions,Clouds,dailyrainin,SoftwareType,DateUTC
2013-11-09 00:01:00,25.0,21.1,30.25,WNW,287,0.0,0.0,85,0.00,,CLR,0.00,VWS V14.01,2013-11-09 05:01:00,
2013-11-09 00:02:00,24.9,21.0,30.25,WNW,287,0.0,0.0,85,0.00,,CLR,0.00,VWS V14.01,2013-11-09 05:02:00,
2013-11-09 00:07:00,24.7,20.8,30.25,WNW,287,0.0,0.0,85,0.00,,CLR,0.00,VWS V14.01,2013-11-09 05:07:00,
2013-11-09 00:12:00,24.7,20.6,30.25,WNW,287,0.0,0.0,84,0.00,,CLR,0.00,VWS V14.01,2013-11-09 05:12:00,
2013-11-09 00:17:00,24.8,20.7,30.25,WNW,287,0.0,0.0,84,0.00,,CLR,0.00,VWS V14.01,2013-11-09 05:17:00,
2013-11-09 00:22:00,25.1,21.0,30.25,WNW,287,0.0,2.0,84,0.00,,CLR,0.00,VWS V14.01,2013-11-09 05:22:00,
2013-11-09 00:27:00,24.9,20.8,30.25,WNW,287,2.0,3.0,84,0.00,,CLR,0.00,VWS V14.01,2013-11-09 05:27:00,
2013-11-09 00:32:00,24.7,20.3,30.25,WNW,287,2.0,3.0,83,0.00,,CLR,0.00,VWS V14.01,2013-11-09 05:32:00,
2013-11-09 00:37:00,24.7,20.3,30.25,WNW,287,0.0,3.0,83,0.00,,CLR,0.00,VWS V14.01,2013-11-09 05:37:00,
2013-11-09 00:42:00,24.8,20.4,30.25,WNW,287,0.0,0.0,83,0.00,,CLR,0.00,VWS V14.01,2013-11-09 05:42:00,
2013-11-09 00:47:00,24.7,20.0,30.25,WNW,287,0.0,1.0,82,0.00,,CLR,0.00,VWS V14.01,2013-11-09 05:47:00,
2013-11-09 00:52:00,24.6,19.9,30.25,WNW,287,0.0,1.0,82,0.00,,CLR,0.00,VWS V14.01,2013-11-09 05:52:00,
2013-11-09 00:57:00,24.4,19.7,30.25,WNW,287,0.0,1.0,82,0.00,,CLR,0.00,VWS V14.01,2013-11-09 05:57:00,
2013-11-09 01:02:00,24.3,19.6,30.25,WNW,287,1.0,2.0,82,0.00,,CLR,0.00,VWS V14.01,2013-11-09 06:02:00,
2013-11-09 01:07:00,24.5,19.8,30.25,WNW,287,0.0,2.0,82,0.00,,CLR,0.00,VWS V14.01,2013-11-09 06:07:00,
2013-11-09 01:12:00,24.7,20.0,30.25,WNW,287,0.0,2.0,82,0.00,,CLR,0.00,VWS V14.01,2013-11-09 06:12:00,
2013-11-09 01:17:00,24.6,19.9,30.25,WNW,287,0.0,2.0,82,0.00,,CLR,0.00,VWS V14.01,2013-11-09 06:17:00,
2013-11-09 01:22:00,24.4,19.7,30.25,WNW,287,0.0,1.0,82,0.00,,CLR,0.00,VWS V14.01,2013-11-09 06:22:00,
2013-11-09 01:27:00,24.0,19.6,30.25,WNW,287,0.0,1.0,83,0.00,,CLR,0.00,VWS V14.01,2013-11-09 06:27:00,
2013-11-09 01:32:00,23.9,19.2,30.25,WNW,287,0.0,1.0,82,0.00,,CLR,0.00,VWS V14.01,2013-11-09 06:32:00,
2013-11-09 01:37:00,23.9,19.2,30.25,WNW,287,0.0,1.0,82,0.00,,CLR,0.00,VWS V14.01,2013-11-09 06:37:00,
2013-11-09 01:42:00,23.8,18.8,30.25,WNW,287,0.0,1.0,81,0.00,,CLR,0.00,VWS V14.01,2013-11-09 06:42:00,
2013-11-09 01:47:00,23.7,18.7,30.25,WNW,287,0.0,1.0,81,0.00,,CLR,0.00,VWS V14.01,2013-11-09 06:47:00,
2013-11-09 01:52:00,23.7,18.7,30.25,WNW,287,0.0,3.0,81,0.00,,CLR,0.00,VWS V14.01,2013-11-09 06:52:00,
2013-11-09 01:57:00,23.7,18.7,30.25,WNW,287,1.0,3.0,81,0.00,,CLR,0.00,VWS V14.01,2013-11-09 06:57:00,
2013-11-09 02:02:00,23.6,18.4,30.25,WNW,287,0.0,2.0,80,0.00,,CLR,0.00,VWS V14.01,2013-11-09 07:02:00,
2013-11-09 02:07:00,23.3,18.1,30.25,WNW,287,1.0,2.0,80,0.00,,CLR,0.00,VWS V14.01,2013-11-09 07:07:00,
2013-11-09 02:12:00,23.1,17.9,30.26,WNW,287,0.0,2.0,80,0.00,,CLR,0.00,VWS V14.01,2013-11-09 07:12:00,
2013-11-09 02:17:00,23.2,18.0,30.26,WNW,287,0.0,2.0,80,0.00,,CLR,0.00,VWS V14.01,2013-11-09 07:17:00,
2013-11-09 02:22:00,23.3,17.8,30.26,WNW,287,1.0,2.0,79,0.00,,CLR,0.00,VWS V14.01,2013-11-09 07:22:00,
2013-11-09 02:27:00,23.4,17.9,30.25,WNW,287,0.0,2.0,79,0.00,,CLR,0.00,VWS V14.01,2013-11-09 07:27:00,
2013-11-09 02:32:00,23.3,17.8,30.25,WNW,287,0.0,0.0,79,0.00,,CLR,0.00,VWS V14.01,2013-11-09 07:32:00,
2013-11-09 02:37:00,23.3,17.5,30.25,WNW,287,1.0,1.0,78,0.00,,CLR,0.00,VWS V14.01,2013-11-09 07:37:00,
2013-11-09 02:42:00,23.3,17.5,30.25,WNW,287,0.0,2.0,78,0.00,,CLR,0.00,VWS V14.01,2013-11-09 07:42:00,
2013-11-09 02:47:00,23.1,17.3,30.25,WNW,287,0.0,2.0,78,0.00,,CLR,0.00,VWS V14.01,2013-11-09 07:47:00,
2013-11-09 02:52:00,23.0,17.2,30.25,WNW,287,0.0,1.0,78,0.00,,CLR,0.00,VWS V14.01,2013-11-09 07:52:00,
2013-11-09 02:57:00,23.0,17.2,30.25,WNW,287,0.0,2.0,78,0.00,,CLR,0.00,VWS V14.01,2013-11-09 07:57:00,
2013-11-09 03:02:00,22.9,17.1,30.25,WNW,287,1.0,2.0,78,0.00,,CLR,0.00,VWS V14.01,2013-11-09 08:02:00,
2013-11-09 03:07:00,22.9,16.8,30.25,WNW,287,0.0,2.0,77,0.00,,CLR,0.00,VWS V14.01,2013-11-09 08:07:00,
2013-11-09 03:12:00,23.0,16.9,30.26,WNW,287,0.0,1.0,77,0.00,,CLR,0.00,VWS V14.01,2013-11-09 08:12:00,
2013-11-09 03:17:00,22.8,16.7,30.26,WNW,287,0.0,1.0,77,0.00,,CLR,0.00,VWS V14.01,2013-11-09 08:17:00,
2013-11-09 03:22:00,22.7,16.6,30.26,WNW,287,0.0,1.0,77,0.00,,CLR,0.00,VWS V14.01,2013-11-09 08:22:00,
2013-11-09 03:27:00,22.6,16.5,30.25,WNW,287,0.0,1.0,77,0.00,,CLR,0.00,VWS V14.01,2013-11-09 08:27:00,
2013-11-09 03:32:00,22.5,16.4,30.25,WNW,287,0.0,1.0,77,0.00,,CLR,0.00,VWS V14.01,2013-11-09 08:32:00,
2013-11-09 03:37:00,22.4,16.3,30.25,WNW,287,0.0,1.0,77,0.00,,CLR,0.00,VWS V14.01,2013-11-09 08:37:00,
2013-11-09 03:42:00,22.5,16.4,30.26,WNW,287,0.0,2.0,77,0.00,,CLR,0.00,VWS V14.01,2013-11-09 08:42:00,
2013-11-09 03:47:00,22.4,16.3,30.26,WNW,287,0.0,2.0,77,0.00,,CLR,0.00,VWS V14.01,2013-11-09 08:47:00,
2013-11-09 03:52:00,22.3,16.2,30.26,WNW,287,0.0,2.0,77,0.00,,CLR,0.00,VWS V14.01,2013-11-09 08:52:00,
2013-11-09 03:57:00,22.1,16.0,30.25,WNW,287,0.0,2.0,77,0.00,,CLR,0.00,VWS V14.01,2013-11-09 08:57:00,
2013-11-09 04:03:00,22.1,15.7,30.25,WNW,287,0.0,0.0,76,0.00,,CLR,0.00,VWS V14.01,2013-11-09 09:03:00,
2013-11-09 04:08:00,22.1,15.7,30.25,WNW,287,0.0,0.0,76,0.00,,CLR,0.00,VWS V14.01,2013-11-09 09:08:00,
2013-11-09 04:13:00,21.9,15.5,30.25,WNW,287,0.0,0.0,76,0.00,,CLR,0.00,VWS V14.01,2013-11-09 09:13:00,
2013-11-09 04:18:00,21.8,15.4,30.25,WNW,287,0.0,0.0,76,0.00,,CLR,0.00,VWS V14.01,2013-11-09 09:18:00,
2013-11-09 04:23:00,21.8,15.4,30.25,WNW,287,0.0,0.0,76,0.00,,CLR,0.00,VWS V14.01,2013-11-09 09:23:00,
2013-11-09 04:28:00,22.0,15.6,30.25,WNW,287,0.0,0.0,76,0.00,,CLR,0.00,VWS V14.01,2013-11-09 09:28:00,
2013-11-09 04:33:00,22.2,15.5,30.25,WNW,287,0.0,0.0,75,0.00,,CLR,0.00,VWS V14.01,2013-11-09 09:33:00,
2013-11-09 04:38:00,22.3,15.6,30.25,WNW,287,0.0,1.0,75,0.00,,CLR,0.00,VWS V14.01,2013-11-09 09:38:00,
2013-11-09 04:43:00,22.4,15.7,30.26,WNW,287,0.0,1.0,75,0.00,,CLR,0.00,VWS V14.01,2013-11-09 09:43:00,
2013-11-09 04:48:00,22.7,16.0,30.26,WNW,287,0.0,1.0,75,0.00,,CLR,0.00,VWS V14.01,2013-11-09 09:48:00,
2013-11-09 04:53:00,22.6,15.9,30.24,WNW,287,0.0,0.0,75,0.00,,CLR,0.00,VWS V14.01,2013-11-09 09:53:00,
2013-11-09 04:58:00,22.4,15.7,30.24,WNW,287,0.0,0.0,75,0.00,,CLR,0.00,VWS V14.01,2013-11-09 09:58:00,
2013-11-09 05:03:00,22.3,15.6,30.24,WNW,287,0.0,0.0,75,0.00,,CLR,0.00,VWS V14.01,2013-11-09 10:03:00,
2013-11-09 05:08:00,21.8,15.1,30.25,WNW,287,0.0,1.0,75,0.00,,CLR,0.00,VWS V14.01,2013-11-09 10:08:00,
2013-11-09 05:13:00,21.7,15.0,30.25,WNW,287,0.0,1.0,75,0.00,,CLR,0.00,VWS V14.01,2013-11-09 10:13:00,
2013-11-09 05:18:00,21.9,15.2,30.25,WNW,287,0.0,1.0,75,0.00,,CLR,0.00,VWS V14.01,2013-11-09 10:18:00,
2013-11-09 05:23:00,22.1,15.1,30.25,WNW,287,0.0,0.0,74,0.00,,CLR,0.00,VWS V14.01,2013-11-09 10:23:00,
2013-11-09 05:28:00,22.3,15.3,30.25,WNW,287,0.0,1.0,74,0.00,,CLR,0.00,VWS V14.01,2013-11-09 10:28:00,
2013-11-09 05:33:00,22.3,15.3,30.25,WNW,287,0.0,0.0,74,0.00,,CLR,0.00,VWS V14.01,2013-11-09 10:33:00,
2013-11-09 05:38:00,22.5,15.5,30.25,WNW,287,0.0,0.0,74,0.00,,CLR,0.00,VWS V14.01,2013-11-09 10:38:00,
2013-11-09 05:43:00,22.6,15.6,30.25,WNW,287,0.0,0.0,74,0.00,,CLR,0.00,VWS V14.01,2013-11-09 10:43:00,
2013-11-09 05:48:00,22.4,15.4,30.25,WNW,287,0.0,0.0,74,0.00,,CLR,0.00,VWS V14.01,2013-11-09 10:48:00,
2013-11-09 05:53:00,22.3,15.3,30.25,WNW,287,0.0,1.0,74,0.00,,CLR,0.00,VWS V14.01,2013-11-09 10:53:00,
2013-11-09 05:54:00,22.4,15.1,30.25,WNW,287,0.0,0.0,73,0.00,,CLR,0.00,VWS V14.01,2013-11-09 10:54:00,
2013-11-09 05:58:00,22.2,15.2,30.25,WNW,287,0.0,1.0,74,0.00,,CLR,0.00,VWS V14.01,2013-11-09 10:58:00,
2013-11-09 06:03:00,22.3,15.3,30.25,WNW,287,0.0,0.0,74,0.00,,CLR,0.00,VWS V14.01,2013-11-09 11:03:00,
2013-11-09 06:08:00,22.6,15.3,30.25,WNW,287,0.0,1.0,73,0.00,,CLR,0.00,VWS V14.01,2013-11-09 11:08:00,
2013-11-09 06:13:00,22.7,15.4,30.25,WNW,287,0.0,0.0,73,0.00,,CLR,0.00,VWS V14.01,2013-11-09 11:13:00,
2013-11-09 06:18:00,22.6,15.3,30.25,WNW,287,0.0,0.0,73,0.00,,CLR,0.00,VWS V14.01,2013-11-09 11:18:00,
2013-11-09 06:23:00,22.5,15.2,30.25,WNW,287,0.0,0.0,73,0.00,,CLR,0.00,VWS V14.01,2013-11-09 11:23:00,
2013-11-09 06:28:00,22.7,15.4,30.25,WNW,287,0.0,0.0,73,0.00,,CLR,0.00,VWS V14.01,2013-11-09 11:28:00,
2013-11-09 06:33:00,22.5,15.2,30.25,WNW,287,0.0,0.0,73,0.00,,CLR,0.00,VWS V14.01,2013-11-09 11:33:00,
2013-11-09 06:38:00,22.5,15.2,30.24,WNW,287,0.0,0.0,73,0.00,,CLR,0.00,VWS V14.01,2013-11-09 11:38:00,
2013-11-09 06:43:00,22.7,15.4,30.24,WNW,287,0.0,0.0,73,0.00,,CLR,0.00,VWS V14.01,2013-11-09 11:43:00,
2013-11-09 06:48:00,22.7,15.4,30.24,WNW,287,0.0,0.0,73,0.00,,CLR,0.00,VWS V14.01,2013-11-09 11:48:00,
2013-11-09 06:53:00,22.7,15.4,30.25,WNW,287,0.0,0.0,73,0.00,,CLR,0.00,VWS V14.01,2013-11-09 11:53:00,
2013-11-09 06:58:00,22.7,15.4,30.25,WNW,287,0.0,0.0,73,0.00,,CLR,0.00,VWS V14.01,2013-11-09 11:58:00,
2013-11-09 07:03:00,22.7,15.4,30.25,WNW,287,0.0,0.0,73,0.00,,CLR,0.00,VWS V14.01,2013-11-09 12:03:00,
2013-11-09 07:07:00,22.7,15.4,30.25,WNW,287,0.0,0.0,73,0.00,,CLR,0.00,VWS V14.01,2013-11-09 12:07:00,
2013-11-09 07:08:00,22.8,15.5,30.25,WNW,287,0.0,1.0,73,0.00,,CLR,0.00,VWS V14.01,2013-11-09 12:08:00,
2013-11-09 07:13:00,22.7,15.4,30.25,WNW,287,0.0,0.0,73,0.00,,CLR,0.00,VWS V14.01,2013-11-09 12:13:00,
2013-11-09 07:18:00,22.7,15.4,30.25,WNW,287,0.0,0.0,73,0.00,,CLR,0.00,VWS V14.01,2013-11-09 12:18:00,
2013-11-09 07:23:00,22.7,15.4,30.25,WNW,287,0.0,0.0,73,0.00,,CLR,0.00,VWS V14.01,2013-11-09 12:23:00,
2013-11-09 07:28:00,22.9,15.2,30.25,WNW,287,0.0,0.0,72,0.00,,CLR,0.00,VWS V14.01,2013-11-09 12:28:00,
2013-11-09 07:33:00,23.1,15.4,30.25,WNW,287,0.0,0.0,72,0.00,,CLR,0.00,VWS V14.01,2013-11-09 12:33:00,
2013-11-09 07:38:00,23.3,15.6,30.24,WNW,287,0.0,1.0,72,0.00,,CLR,0.00,VWS V14.01,2013-11-09 12:38:00,
2013-11-09 07:43:00,23.6,15.9,30.24,WNW,287,0.0,0.0,72,0.00,,CLR,0.00,VWS V14.01,2013-11-09 12:43:00,
2013-11-09 07:48:00,23.7,16.0,30.24,WNW,287,0.0,0.0,72,0.00,,CLR,0.00,VWS V14.01,2013-11-09 12:48:00,
2013-11-09 07:53:00,23.5,15.8,30.24,WNW,287,0.0,0.0,72,0.00,,CLR,0.00,VWS V14.01,2013-11-09 12:53:00,
2013-11-09 07:58:00,23.4,15.7,30.24,WNW,287,0.0,0.0,72,0.00,,CLR,0.00,VWS V14.01,2013-11-09 12:58:00,
2013-11-09 08:03:00,23.9,16.2,30.24,WNW,287,0.0,1.0,72,0.00,,CLR,0.00,VWS V14.01,2013-11-09 13:03:00,
2013-11-09 08:08:00,24.5,16.5,30.24,WNW,287,0.0,1.0,71,0.00,,CLR,0.00,VWS V14.01,2013-11-09 13:08:00,
2013-11-09 08:13:00,24.9,16.8,30.24,WNW,287,0.0,1.0,71,0.00,,CLR,0.00,VWS V14.01,2013-11-09 13:13:00,
2013-11-09 08:18:00,25.1,17.0,30.24,WNW,286,0.0,1.0,71,0.00,,CLR,0.00,VWS V14.01,2013-11-09 13:18:00,
2013-11-09 08:21:00,25.8,17.7,30.24,WNW,286,0.0,0.0,71,0.00,,CLR,0.00,VWS V14.01,2013-11-09 13:21:00,
2013-11-09 08:23:00,25.3,17.2,30.24,WNW,286,2.0,2.0,71,0.00,,CLR,0.00,VWS V14.01,2013-11-09 13:23:00,
2013-11-09 08:28:00,25.6,17.5,30.24,WNW,286,0.0,2.0,71,0.00,,CLR,0.00,VWS V14.01,2013-11-09 13:28:00,
2013-11-09 08:33:00,26.0,17.9,30.24,WNW,286,0.0,0.0,71,0.00,,CLR,0.00,VWS V14.01,2013-11-09 13:33:00,
2013-11-09 08:38:00,26.2,18.4,30.24,WNW,286,2.0,2.0,72,0.00,,CLR,0.00,VWS V14.01,2013-11-09 13:38:00,
2013-11-09 08:39:00,26.4,18.6,30.24,WNW,286,0.0,1.0,72,0.00,,CLR,0.00,VWS V14.01,2013-11-09 13:39:00,
2013-11-09 08:43:00,26.2,18.4,30.24,WNW,286,0.0,1.0,72,0.00,,CLR,0.00,VWS V14.01,2013-11-09 13:43:00,
2013-11-09 08:48:00,26.4,18.6,30.24,WNW,286,0.0,1.0,72,0.00,,CLR,0.00,VWS V14.01,2013-11-09 13:48:00,
2013-11-09 08:53:00,27.3,19.1,30.23,WNW,286,0.0,2.0,71,0.00,,CLR,0.00,VWS V14.01,2013-11-09 13:53:00,
2013-11-09 08:57:00,29.1,23.4,30.23,WSW,241,0.0,3.0,79,0.00,,CLR,0.00,VWS V14.01,2013-11-09 13:57:00,
2013-11-09 08:58:00,28.3,20.4,30.23,WNW,284,2.0,3.0,72,0.00,,CLR,0.00,VWS V14.01,2013-11-09 13:58:00,
2013-11-09 09:03:00,28.8,22.2,30.23,SW,222,1.0,3.0,76,0.00,,CLR,0.00,VWS V14.01,2013-11-09 14:03:00,
2013-11-09 09:06:00,30.3,25.8,30.22,WSW,246,1.0,4.0,83,0.00,,CLR,0.00,VWS V14.01,2013-11-09 14:06:00,
2013-11-09 09:08:00,29.5,23.8,30.22,WSW,242,0.0,3.0,79,0.00,,CLR,0.00,VWS V14.01,2013-11-09 14:08:00,
2013-11-09 09:13:00,30.3,25.2,30.22,WSW,256,2.0,3.0,81,0.00,,CLR,0.00,VWS V14.01,2013-11-09 14:13:00,
2013-11-09 09:18:00,30.7,26.5,30.22,SW,217,3.0,5.0,84,0.00,,CLR,0.00,VWS V14.01,2013-11-09 14:18:00,
2013-11-09 09:23:00,31.5,27.5,30.21,SW,226,2.0,4.0,85,0.00,,CLR,0.00,VWS V14.01,2013-11-09 14:23:00,
2013-11-09 09:28:00,32.0,28.0,30.21,SW,219,0.0,4.0,85,0.00,,CLR,0.00,VWS V14.01,2013-11-09 14:28:00,
2013-11-09 09:33:00,32.6,28.6,30.21,SSW,213,0.0,3.0,85,0.00,,CLR,0.00,VWS V14.01,2013-11-09 14:33:00,
2013-11-09 09:38:00,33.3,29.3,30.20,South,180,0.0,5.0,85,0.00,,CLR,0.00,VWS V14.01,2013-11-09 14:38:00,
2013-11-09 09:43:00,34.1,30.1,30.20,South,178,0.0,4.0,85,0.00,,CLR,0.00,VWS V14.01,2013-11-09 14:43:00,
2013-11-09 09:48:00,35.0,30.7,30.20,South,183,2.0,4.0,84,0.00,,CLR,0.00,VWS V14.01,2013-11-09 14:48:00,
2013-11-09 09:53:00,35.4,30.8,30.19,WSW,244,3.0,3.0,83,0.00,,CLR,0.00,VWS V14.01,2013-11-09 14:53:00,
2013-11-09 09:58:00,36.0,31.0,30.19,SW,233,5.0,5.0,82,0.00,,CLR,0.00,VWS V14.01,2013-11-09 14:58:00,
2013-11-09 10:03:00,36.1,30.5,30.19,SSW,211,0.0,7.0,80,0.00,,CLR,0.00,VWS V14.01,2013-11-09 15:03:00,
2013-11-09 10:08:00,36.3,30.7,30.19,SW,232,0.0,7.0,80,0.00,,CLR,0.00,VWS V14.01,2013-11-09 15:08:00,
2013-11-09 10:13:00,37.5,31.3,30.19,West,277,1.0,5.0,78,0.00,,CLR,0.00,VWS V14.01,2013-11-09 15:13:00,
2013-11-09 10:18:00,38.6,31.4,30.19,WSW,254,5.0,9.0,75,0.00,,CLR,0.00,VWS V14.01,2013-11-09 15:18:00,
2013-11-09 10:23:00,38.6,30.7,30.17,SSW,198,4.0,10.0,73,0.00,,CLR,0.00,VWS V14.01,2013-11-09 15:23:00,
2013-11-09 10:24:00,39.6,30.6,30.17,WSW,244,2.0,11.0,70,0.00,,CLR,0.00,VWS V14.01,2013-11-09 15:24:00,
2013-11-09 10:28:00,39.1,30.9,30.17,WSW,238,3.0,10.0,72,0.00,,CLR,0.00,VWS V14.01,2013-11-09 15:28:00,
2013-11-09 10:32:00,40.2,30.9,30.17,WSW,251,5.0,9.0,69,0.00,,CLR,0.00,VWS V14.01,2013-11-09 15:32:00,
2013-11-09 10:33:00,39.6,30.6,30.17,WSW,242,0.0,11.0,70,0.00,,CLR,0.00,VWS V14.01,2013-11-09 15:33:00,
2013-11-09 10:38:00,39.9,30.6,30.17,WNW,283,5.0,11.0,69,0.00,,CLR,0.00,VWS V14.01,2013-11-09 15:38:00,
2013-11-09 10:43:00,40.4,30.7,30.17,WSW,248,3.0,9.0,68,0.00,,CLR,0.00,VWS V14.01,2013-11-09 15:43:00,
2013-11-09 10:48:00,41.4,31.3,30.17,WSW,240,5.0,10.0,67,0.00,,CLR,0.00,VWS V14.01,2013-11-09 15:48:00,
2013-11-09 10:53:00,42.5,32.0,30.15,SSW,196,3.0,6.0,66,0.00,,CLR,0.00,VWS V14.01,2013-11-09 15:53:00,
2013-11-09 10:58:00,42.8,31.5,30.15,WSW,237,0.0,10.0,64,0.00,,CLR,0.00,VWS V14.01,2013-11-09 15:58:00,
2013-11-09 10:59:00,43.1,31.0,30.14,SSW,201,2.0,11.0,62,0.00,,CLR,0.00,VWS V14.01,2013-11-09 15:59:00,
2013-11-09 11:03:00,42.9,31.2,30.15,SE,140,6.0,11.0,63,0.00,,CLR,0.00,VWS V14.01,2013-11-09 16:03:00,
2013-11-09 11:08:00,43.1,31.4,30.14,SSW,201,4.0,11.0,63,0.00,,CLR,0.00,VWS V14.01,2013-11-09 16:08:00,
2013-11-09 11:12:00,44.2,30.8,30.14,South,184,6.0,12.0,59,0.00,,CLR,0.00,VWS V14.01,2013-11-09 16:12:00,
2013-11-09 11:13:00,43.5,31.4,30.14,SE,133,6.0,7.0,62,0.00,,CLR,0.00,VWS V14.01,2013-11-09 16:13:00,
2013-11-09 11:16:00,44.0,30.2,30.12,SE,140,9.0,12.0,58,0.00,,CLR,0.00,VWS V14.01,2013-11-09 16:16:00,
2013-11-09 11:18:00,44.0,31.0,30.14,SSW,192,10.0,10.0,60,0.00,,CLR,0.00,VWS V14.01,2013-11-09 16:18:00,
2013-11-09 11:23:00,44.2,30.8,30.12,ESE,121,5.0,12.0,59,0.00,,CLR,0.00,VWS V14.01,2013-11-09 16:23:00,
2013-11-09 11:28:00,44.5,31.9,30.12,SSW,200,2.0,12.0,61,0.00,,CLR,0.00,VWS V14.01,2013-11-09 16:28:00,
2013-11-09 11:33:00,44.9,31.0,30.12,SE,129,2.0,9.0,58,0.00,,CLR,0.00,VWS V14.01,2013-11-09 16:33:00,
2013-11-09 11:38:00,45.3,31.4,30.11,SSE,157,2.0,12.0,58,0.00,,CLR,0.00,VWS V14.01,2013-11-09 16:38:00,
2013-11-09 11:43:00,45.6,30.4,30.11,SSW,207,7.0,13.0,55,0.00,,CLR,0.00,VWS V14.01,2013-11-09 16:43:00,
2013-11-09 11:48:00,45.6,30.4,30.11,SW,214,1.0,13.0,55,0.00,,CLR,0.00,VWS V14.01,2013-11-09 16:48:00,
2013-11-09 11:53:00,46.3,31.0,30.09,SW,235,1.0,10.0,55,0.00,,CLR,0.00,VWS V14.01,2013-11-09 16:53:00,
2013-11-09 11:58:00,46.8,30.6,30.09,SW,225,4.0,10.0,53,0.00,,CLR,0.00,VWS V14.01,2013-11-09 16:58:00,
2013-11-09 12:04:00,46.7,30.5,30.09,SW,225,4.0,12.0,53,0.00,,CLR,0.00,VWS V14.01,2013-11-09 17:04:00,
2013-11-09 12:09:00,46.5,29.4,30.08,SSW,197,6.0,12.0,51,0.00,,CLR,0.00,VWS V14.01,2013-11-09 17:09:00,
2013-11-09 12:14:00,46.5,28.9,30.08,SW,232,5.0,11.0,50,0.00,,CLR,0.00,VWS V14.01,2013-11-09 17:14:00,
2013-11-09 12:19:00,46.8,29.6,30.08,WSW,237,3.0,11.0,51,0.00,,CLR,0.00,VWS V14.01,2013-11-09 17:19:00,
2013-11-09 12:21:00,48.2,30.5,30.07,SW,214,3.0,9.0,50,0.00,,CLR,0.00,VWS V14.01,2013-11-09 17:21:00,
2013-11-09 12:24:00,46.9,29.2,30.07,West,260,8.0,12.0,50,0.00,,CLR,0.00,VWS V14.01,2013-11-09 17:24:00,
2013-11-09 12:29:00,47.7,29.5,30.07,SW,221,2.0,14.0,49,0.00,,CLR,0.00,VWS V14.01,2013-11-09 17:29:00,
2013-11-09 12:34:00,48.7,31.9,30.07,SSW,196,8.0,9.0,52,0.00,,CLR,0.00,VWS V14.01,2013-11-09 17:34:00,
2013-11-09 12:39:00,48.8,29.5,30.05,SSW,201,1.0,1.0,47,0.00,,CLR,0.00,VWS V14.01,2013-11-09 17:39:00,
2013-11-09 12:44:00,48.8,29.0,30.05,South,190,4.0,12.0,46,0.00,,CLR,0.00,VWS V14.01,2013-11-09 17:44:00,
2013-11-09 12:49:00,49.4,30.0,30.05,SW,233,4.0,12.0,47,0.00,,CLR,0.00,VWS V14.01,2013-11-09 17:49:00,
2013-11-09 12:54:00,50.1,30.7,30.03,South,190,5.0,13.0,47,0.00,,CLR,0.00,VWS V14.01,2013-11-09 17:54:00,
2013-11-09 12:56:00,49.6,28.6,30.03,SSW,202,8.0,11.0,44,0.00,,CLR,0.00,VWS V14.01,2013-11-09 17:56:00,
2013-11-09 12:59:00,49.7,30.3,30.03,WSW,254,3.0,4.0,47,0.00,,CLR,0.00,VWS V14.01,2013-11-09 17:59:00,
2013-11-09 13:04:00,49.7,28.7,30.03,SSW,213,3.0,11.0,44,0.00,,CLR,0.00,VWS V14.01,2013-11-09 18:04:00,
2013-11-09 13:09:00,49.6,28.6,30.03,SW,219,6.0,6.0,44,0.00,,CLR,0.00,VWS V14.01,2013-11-09 18:09:00,
2013-11-09 13:14:00,50.5,29.4,30.03,South,175,4.0,8.0,44,0.00,,CLR,0.00,VWS V14.01,2013-11-09 18:14:00,
2013-11-09 13:17:00,51.5,30.3,30.01,WSW,252,7.0,11.0,44,0.00,,CLR,0.00,VWS V14.01,2013-11-09 18:17:00,
2013-11-09 13:19:00,50.7,27.9,30.03,SW,222,5.0,8.0,41,0.00,,CLR,0.00,VWS V14.01,2013-11-09 18:19:00,
2013-11-09 13:24:00,51.4,29.7,30.01,SW,217,9.0,11.0,43,0.00,,CLR,0.00,VWS V14.01,2013-11-09 18:24:00,
2013-11-09 13:26:00,50.9,28.6,30.01,SW,227,5.0,9.0,42,0.00,,OVC110,0.00,VWS V14.01,2013-11-09 18:26:00,
2013-11-09 13:29:00,51.3,27.2,30.01,WSW,240,6.0,6.0,39,0.00,,CLR,0.00,VWS V14.01,2013-11-09 18:29:00,
2013-11-09 13:34:00,51.1,28.2,30.01,SSW,209,6.0,7.0,41,0.00,,OVC110,0.00,VWS V14.01,2013-11-09 18:34:00,
2013-11-09 13:39:00,50.7,26.7,30.01,SSW,194,2.0,5.0,39,0.00,,OVC110,0.00,VWS V14.01,2013-11-09 18:39:00,
2013-11-09 13:44:00,50.6,26.6,30.01,SW,221,2.0,7.0,39,0.00,,OVC110,0.00,VWS V14.01,2013-11-09 18:44:00,
2013-11-09 13:49:00,50.6,27.2,30.01,South,188,3.0,4.0,40,0.00,,OVC110,0.00,VWS V14.01,2013-11-09 18:49:00,
2013-11-09 13:54:00,50.7,27.9,30.01,SSW,195,1.0,10.0,41,0.00,,OVC110,0.00,VWS V14.01,2013-11-09 18:54:00,
2013-11-09 13:59:00,50.8,28.0,30.01,South,175,0.0,0.0,41,0.00,,OVC110,0.00,VWS V14.01,2013-11-09 18:59:00,
2013-11-09 14:04:00,50.5,25.9,30.01,South,175,1.0,9.0,38,0.00,,OVC110,0.00,VWS V14.01,2013-11-09 19:04:00,
2013-11-09 14:09:00,50.3,26.3,30.00,SW,217,2.0,2.0,39,0.00,,OVC110,0.00,VWS V14.01,2013-11-09 19:09:00,
2013-11-09 14:14:00,50.3,26.9,30.00,WSW,239,6.0,10.0,40,0.00,,OVC110,0.00,VWS V14.01,2013-11-09 19:14:00,
2013-11-09 14:19:00,50.5,23.9,30.00,SW,219,4.0,7.0,35,0.00,,OVC110,0.00,VWS V14.01,2013-11-09 19:19:00,
2013-11-09 14:24:00,50.9,22.1,29.99,SW,225,3.0,14.0,32,0.00,,OVC110,0.00,VWS V14.01,2013-11-09 19:24:00,
2013-11-09 14:26:00,50.9,22.8,29.99,SW,215,10.0,14.0,33,0.00,,OVC110,0.00,VWS V14.01,2013-11-09 19:26:00,
2013-11-09 14:29:00,51.0,25.0,29.99,WNW,300,4.0,8.0,36,0.00,,OVC110,0.00,VWS V14.01,2013-11-09 19:29:00,
2013-11-09 14:34:00,50.9,24.2,29.99,ESE,113,9.0,14.0,35,0.00,,OVC110,0.00,VWS V14.01,2013-11-09 19:34:00,
2013-11-09 14:38:00,50.9,22.8,29.99,SW,221,4.0,11.0,33,0.00,,OVC110,0.00,VWS V14.01,2013-11-09 19:38:00,
2013-11-09 14:39:00,50.9,23.5,29.99,SSW,205,6.0,6.0,34,0.00,,OVC110,0.00,VWS V14.01,2013-11-09 19:39:00,
2013-11-09 14:42:00,51.1,22.3,29.99,SSW,211,4.0,12.0,32,0.00,,OVC110,0.00,VWS V14.01,2013-11-09 19:42:00,
2013-11-09 14:44:00,50.8,23.5,29.99,SSW,211,8.0,11.0,34,0.00,,OVC110,0.00,VWS V14.01,2013-11-09 19:44:00,
2013-11-09 14:49:00,51.0,22.2,29.99,WSW,257,2.0,10.0,32,0.00,,OVC110,0.00,VWS V14.01,2013-11-09 19:49:00,
2013-11-09 14:54:00,51.1,23.0,29.99,WSW,245,9.0,12.0,33,0.00,,OVC110,0.00,VWS V14.01,2013-11-09 19:54:00,
2013-11-09 14:56:00,51.2,23.1,29.99,WSW,255,10.0,11.0,33,0.00,,OVC110,0.00,VWS V14.01,2013-11-09 19:56:00,
2013-11-09 14:59:00,51.1,23.0,29.99,SW,217,3.0,4.0,33,0.00,,OVC110,0.00,VWS V14.01,2013-11-09 19:59:00,
2013-11-09 15:04:00,51.2,23.8,29.99,South,176,5.0,11.0,34,0.00,,OVC110,0.00,VWS V14.01,2013-11-09 20:04:00,
2013-11-09 15:09:00,51.1,22.3,29.99,WSW,252,2.0,6.0,32,0.00,,OVC110,0.00,VWS V14.01,2013-11-09 20:09:00,
2013-11-09 15:14:00,51.7,23.5,29.99,WSW,246,9.0,13.0,33,0.00,,OVC110,0.00,VWS V14.01,2013-11-09 20:14:00,
2013-11-09 15:19:00,51.8,23.6,29.99,SW,225,4.0,4.0,33,0.00,,OVC110,0.00,VWS V14.01,2013-11-09 20:19:00,
2013-11-09 15:24:00,51.3,22.5,29.99,SW,233,4.0,15.0,32,0.00,,OVC110,0.00,VWS V14.01,2013-11-09 20:24:00,
2013-11-09 15:29:00,50.9,22.8,29.99,SSW,207,6.0,10.0,33,0.00,,OVC110,0.00,VWS V14.01,2013-11-09 20:29:00,
2013-11-09 15:34:00,50.8,22.0,29.99,West,263,3.0,14.0,32,0.00,,BKN100,0.00,VWS V14.01,2013-11-09 20:34:00,
2013-11-09 15:39:00,50.6,22.6,29.99,WSW,246,2.0,3.0,33,0.00,,BKN100,0.00,VWS V14.01,2013-11-09 20:39:00,
2013-11-09 15:44:00,50.9,22.1,29.99,SW,214,6.0,14.0,32,0.00,,BKN100,0.00,VWS V14.01,2013-11-09 20:44:00,
2013-11-09 15:49:00,51.6,22.7,29.99,WNW,284,2.0,8.0,32,0.00,,BKN100,0.00,VWS V14.01,2013-11-09 20:49:00,
2013-11-09 15:54:00,51.9,23.7,29.97,SSW,207,7.0,8.0,33,0.00,,BKN100,0.00,VWS V14.01,2013-11-09 20:54:00,
2013-11-09 15:59:00,52.1,23.2,29.97,WSW,239,3.0,5.0,32,0.00,,BKN100,0.00,VWS V14.01,2013-11-09 20:59:00,
2013-11-09 16:04:00,51.8,22.1,29.97,SW,236,5.0,11.0,31,0.00,,BKN100,0.00,VWS V14.01,2013-11-09 21:04:00,
2013-11-09 16:09:00,51.3,23.2,29.96,SW,214,2.0,2.0,33,0.00,,BKN100,0.00,VWS V14.01,2013-11-09 21:09:00,
2013-11-09 16:14:00,50.9,22.1,29.96,WSW,244,6.0,14.0,32,0.00,,BKN100,0.00,VWS V14.01,2013-11-09 21:14:00,
2013-11-09 16:16:00,51.7,22.1,29.95,WSW,248,12.0,17.0,31,0.00,,BKN100,0.00,VWS V14.01,2013-11-09 21:16:00,
2013-11-09 16:19:00,51.4,22.5,29.96,SSW,211,9.0,10.0,32,0.00,,BKN100,0.00,VWS V14.01,2013-11-09 21:19:00,
2013-11-09 16:20:00,51.5,21.1,29.95,SSW,211,11.0,17.0,30,0.00,,BKN100,0.00,VWS V14.01,2013-11-09 21:20:00,
2013-11-09 16:24:00,51.7,22.1,29.95,West,273,7.0,17.0,31,0.00,,BKN100,0.00,VWS V14.01,2013-11-09 21:24:00,
2013-11-09 16:29:00,51.5,21.1,29.95,SW,226,11.0,17.0,30,0.00,,BKN100,0.00,VWS V14.01,2013-11-09 21:29:00,
2013-11-09 16:33:00,51.4,21.8,29.95,SW,230,9.0,12.0,31,0.00,,CLR,0.00,VWS V14.01,2013-11-09 21:33:00,
2013-11-09 16:34:00,51.2,22.4,29.95,SW,215,9.0,22.0,32,0.00,,CLR,0.00,VWS V14.01,2013-11-09 21:34:00,
2013-11-09 16:39:00,51.5,21.9,29.95,WSW,245,12.0,12.0,31,0.00,,CLR,0.00,VWS V14.01,2013-11-09 21:39:00,
2013-11-09 16:41:00,51.1,21.5,29.95,WSW,238,3.0,10.0,31,0.00,,CLR,0.00,VWS V14.01,2013-11-09 21:41:00,
2013-11-09 16:44:00,51.3,21.7,29.95,West,268,7.0,12.0,31,0.00,,CLR,0.00,VWS V14.01,2013-11-09 21:44:00,
2013-11-09 16:49:00,51.1,20.8,29.95,West,267,4.0,10.0,30,0.00,,CLR,0.00,VWS V14.01,2013-11-09 21:49:00,
2013-11-09 16:54:00,51.0,21.5,29.97,SSW,210,10.0,12.0,31,0.00,,CLR,0.00,VWS V14.01,2013-11-09 21:54:00,
2013-11-09 16:59:00,50.6,21.9,29.97,West,264,2.0,11.0,32,0.00,,CLR,0.00,VWS V14.01,2013-11-09 21:59:00,
2013-11-09 17:01:00,50.1,22.1,29.96,WSW,247,4.0,11.0,33,0.00,,CLR,0.00,VWS V14.01,2013-11-09 22:01:00,
2013-11-09 17:04:00,50.2,22.2,29.97,SSW,192,6.0,13.0,33,0.00,,CLR,0.00,VWS V14.01,2013-11-09 22:04:00,
2013-11-09 17:05:00,50.0,21.3,29.96,WSW,250,6.0,14.0,32,0.00,,CLR,0.00,VWS V14.01,2013-11-09 22:05:00,
2013-11-09 17:09:00,50.2,21.5,29.96,WSW,257,3.0,10.0,32,0.00,,CLR,0.00,VWS V14.01,2013-11-09 22:09:00,
2013-11-09 17:14:00,50.0,21.3,29.96,West,260,4.0,14.0,32,0.00,,CLR,0.00,VWS V14.01,2013-11-09 22:14:00,
2013-11-09 17:19:00,49.5,21.6,29.96,West,260,10.0,10.0,33,0.00,,CLR,0.00,VWS V14.01,2013-11-09 22:19:00,
2013-11-09 17:24:00,49.2,21.3,29.97,SW,223,11.0,15.0,33,0.00,,CLR,0.00,VWS V14.01,2013-11-09 22:24:00,
2013-11-09 17:25:00,48.8,21.7,29.97,SW,218,2.0,13.0,34,0.00,,CLR,0.00,VWS V14.01,2013-11-09 22:25:00,
2013-11-09 17:29:00,49.2,21.3,29.97,WSW,249,2.0,4.0,33,0.00,,CLR,0.00,VWS V14.01,2013-11-09 22:29:00,
2013-11-09 17:34:00,48.8,21.7,29.97,SW,233,2.0,13.0,34,0.00,,CLR,0.00,VWS V14.01,2013-11-09 22:34:00,
2013-11-09 17:39:00,48.7,20.9,29.97,WSW,246,5.0,5.0,33,0.00,,CLR,0.00,VWS V14.01,2013-11-09 22:39:00,
2013-11-09 17:44:00,48.6,22.2,29.97,WSW,242,4.0,12.0,35,0.00,,CLR,0.00,VWS V14.01,2013-11-09 22:44:00,
2013-11-09 17:46:00,48.4,21.3,29.97,WSW,253,3.0,8.0,34,0.00,,CLR,0.00,VWS V14.01,2013-11-09 22:46:00,
2013-11-09 17:49:00,48.6,21.5,29.97,WSW,248,2.0,5.0,34,0.00,,CLR,0.00,VWS V14.01,2013-11-09 22:49:00,
2013-11-09 17:54:00,48.3,21.2,29.97,SW,221,6.0,8.0,34,0.00,,CLR,0.00,VWS V14.01,2013-11-09 22:54:00,
2013-11-09 17:59:00,48.3,21.2,29.97,WSW,248,6.0,7.0,34,0.00,,CLR,0.00,VWS V14.01,2013-11-09 22:59:00,
2013-11-09 18:04:00,48.5,21.4,29.97,SSW,213,12.0,14.0,34,0.00,,CLR,0.00,VWS V14.01,2013-11-09 23:04:00,
2013-11-09 18:08:00,48.6,21.5,29.97,SW,226,4.0,16.0,34,0.00,,CLR,0.00,VWS V14.01,2013-11-09 23:08:00,
2013-11-09 18:09:00,48.6,21.5,29.97,West,269,3.0,5.0,34,0.00,,CLR,0.00,VWS V14.01,2013-11-09 23:09:00,
2013-11-09 18:14:00,48.5,21.4,29.97,WSW,249,5.0,16.0,34,0.00,,CLR,0.00,VWS V14.01,2013-11-09 23:14:00,
2013-11-09 18:15:00,48.5,21.4,29.97,WSW,246,3.0,14.0,34,0.00,,CLR,0.00,VWS V14.01,2013-11-09 23:15:00,
2013-11-09 18:20:00,48.6,21.5,29.97,WSW,248,5.0,14.0,34,0.00,,CLR,0.00,VWS V14.01,2013-11-09 23:20:00,
2013-11-09 18:24:00,48.3,21.9,29.97,SW,236,11.0,14.0,35,0.00,,CLR,0.00,VWS V14.01,2013-11-09 23:24:00,
2013-11-09 18:25:00,48.5,21.4,29.97,WSW,252,5.0,14.0,34,0.00,,CLR,0.00,VWS V14.01,2013-11-09 23:25:00,
2013-11-09 18:29:00,48.4,22.0,29.97,WSW,242,10.0,14.0,35,0.00,,CLR,0.00,VWS V14.01,2013-11-09 23:29:00,
2013-11-09 18:30:00,48.5,21.4,29.97,WSW,255,3.0,7.0,34,0.00,,CLR,0.00,VWS V14.01,2013-11-09 23:30:00,
2013-11-09 18:32:00,48.5,21.4,29.97,West,264,6.0,13.0,34,0.00,,CLR,0.00,VWS V14.01,2013-11-09 23:32:00,
2013-11-09 18:33:00,48.4,21.3,29.97,SW,233,8.0,13.0,34,0.00,,CLR,0.00,VWS V14.01,2013-11-09 23:33:00,
2013-11-09 18:35:00,48.4,22.0,29.97,WSW,239,4.0,14.0,35,0.00,,CLR,0.00,VWS V14.01,2013-11-09 23:35:00,
2013-11-09 18:37:00,48.6,21.5,29.97,WSW,237,4.0,13.0,34,0.00,,CLR,0.00,VWS V14.01,2013-11-09 23:37:00,
2013-11-09 18:38:00,48.6,21.5,29.97,SW,235,9.0,17.0,34,0.00,,CLR,0.00,VWS V14.01,2013-11-09 23:38:00,
2013-11-09 18:40:00,48.4,22.0,29.97,WSW,249,7.0,13.0,35,0.00,,CLR,0.00,VWS V14.01,2013-11-09 23:40:00,
2013-11-09 18:41:00,48.7,21.6,29.97,SW,233,7.0,13.0,34,0.00,,CLR,0.00,VWS V14.01,2013-11-09 23:41:00,
2013-11-09 18:42:00,48.8,21.7,29.97,SW,229,5.0,14.0,34,0.00,,CLR,0.00,VWS V14.01,2013-11-09 23:42:00,
2013-11-09 18:45:00,48.5,21.4,29.97,West,259,9.0,13.0,34,0.00,,CLR,0.00,VWS V14.01,2013-11-09 23:45:00,
2013-11-09 18:46:00,48.6,21.5,29.97,SW,225,5.0,15.0,34,0.00,,CLR,0.00,VWS V14.01,2013-11-09 23:46:00,
2013-11-09 18:50:00,48.7,21.6,29.97,West,260,3.0,12.0,34,0.00,,CLR,0.00,VWS V14.01,2013-11-09 23:50:00,
2013-11-09 18:55:00,48.6,21.5,29.97,SW,218,7.0,15.0,34,0.00,,CLR,0.00,VWS V14.01,2013-11-09 23:55:00,
2013-11-09 19:00:00,49.0,21.9,29.97,WSW,243,7.0,10.0,34,0.00,,CLR,0.00,VWS V14.01,2013-11-10 00:00:00,
2013-11-09 19:05:00,49.0,21.2,29.97,WSW,248,11.0,17.0,33,0.00,,CLR,0.00,VWS V14.01,2013-11-10 00:05:00,
2013-11-09 19:10:00,49.2,21.3,29.97,WSW,248,6.0,10.0,33,0.00,,CLR,0.00,VWS V14.01,2013-11-10 00:10:00,
2013-11-09 19:15:00,48.8,21.7,29.97,SW,236,5.0,14.0,34,0.00,,CLR,0.00,VWS V14.01,2013-11-10 00:15:00,
2013-11-09 19:20:00,48.9,21.8,29.97,WSW,246,9.0,11.0,34,0.00,,CLR,0.00,VWS V14.01,2013-11-10 00:20:00,
2013-11-09 19:25:00,48.7,21.6,29.96,WSW,253,14.0,14.0,34,0.00,,CLR,0.00,VWS V14.01,2013-11-10 00:25:00,
2013-11-09 19:29:00,49.3,21.4,29.96,SW,230,7.0,24.0,33,0.00,,CLR,0.00,VWS V14.01,2013-11-10 00:29:00,
2013-11-09 19:30:00,49.4,21.5,29.96,West,259,24.0,24.0,33,0.00,,CLR,0.00,VWS V14.01,2013-11-10 00:30:00,
2013-11-09 19:33:00,49.2,21.3,29.96,WSW,244,17.0,18.0,33,0.00,,CLR,0.00,VWS V14.01,2013-11-10 00:33:00,
2013-11-09 19:35:00,49.2,21.3,29.96,WSW,246,3.0,24.0,33,0.00,,CLR,0.00,VWS V14.01,2013-11-10 00:35:00,
2013-11-09 19:40:00,49.2,21.3,29.96,WSW,245,18.0,18.0,33,0.00,,CLR,0.00,VWS V14.01,2013-11-10 00:40:00,
2013-11-09 19:41:00,49.6,21.0,29.96,WSW,252,9.0,17.0,32,0.00,,CLR,0.00,VWS V14.01,2013-11-10 00:41:00,
2013-11-09 19:45:00,49.3,21.4,29.96,WSW,256,11.0,18.0,33,0.00,,CLR,0.00,VWS V14.01,2013-11-10 00:45:00,
2013-11-09 19:46:00,49.7,21.1,29.95,WSW,244,6.0,19.0,32,0.00,,CLR,0.00,VWS V14.01,2013-11-10 00:46:00,
2013-11-09 19:50:00,49.6,21.0,29.96,WSW,245,14.0,16.0,32,0.00,,CLR,0.00,VWS V14.01,2013-11-10 00:50:00,
2013-11-09 19:55:00,49.8,21.1,29.95,West,267,9.0,19.0,32,0.00,,CLR,0.00,VWS V14.01,2013-11-10 00:55:00,
2013-11-09 20:00:00,49.6,21.0,29.95,WSW,242,10.0,16.0,32,0.00,,CLR,0.00,VWS V14.01,2013-11-10 01:00:00,
2013-11-09 20:01:00,50.0,21.3,29.95,West,264,13.0,18.0,32,0.00,,CLR,0.00,VWS V14.01,2013-11-10 01:01:00,
2013-11-09 20:05:00,49.8,21.1,29.95,West,260,9.0,22.0,32,0.00,,CLR,0.00,VWS V14.01,2013-11-10 01:05:00,
2013-11-09 20:10:00,49.9,21.2,29.95,WSW,255,18.0,22.0,32,0.00,,CLR,0.00,VWS V14.01,2013-11-10 01:10:00,
2013-11-09 20:15:00,50.3,21.6,29.95,WSW,252,19.0,32.0,32,0.00,,CLR,0.00,VWS V14.01,2013-11-10 01:15:00,
2013-11-09 20:16:00,50.1,21.4,29.94,WSW,257,12.0,20.0,32,0.00,,CLR,0.00,VWS V14.01,2013-11-10 01:16:00,
2013-11-09 20:20:00,50.1,21.4,29.95,SW,235,17.0,19.0,32,0.00,,CLR,0.00,VWS V14.01,2013-11-10 01:20:00,
2013-11-09 20:23:00,50.1,21.4,29.94,WSW,248,14.0,23.0,32,0.00,,CLR,0.00,VWS V14.01,2013-11-10 01:23:00,
2013-11-09 20:24:00,50.2,21.5,29.94,SW,216,18.0,23.0,32,0.00,,CLR,0.00,VWS V14.01,2013-11-10 01:24:00,
2013-11-09 20:25:00,50.1,21.4,29.94,West,269,11.0,20.0,32,0.00,,CLR,0.00,VWS V14.01,2013-11-10 01:25:00,
2013-11-09 20:30:00,49.9,21.2,29.94,WSW,253,21.0,21.0,32,0.00,,CLR,0.00,VWS V14.01,2013-11-10 01:30:00,
2013-11-09 20:33:00,50.3,21.6,29.93,West,263,17.0,20.0,32,0.00,,CLR,0.00,VWS V14.01,2013-11-10 01:33:00,
2013-11-09 20:34:00,50.2,21.5,29.93,West,259,23.0,28.0,32,0.00,,CLR,0.00,VWS V14.01,2013-11-10 01:34:00,
2013-11-09 20:35:00,50.2,21.5,29.94,West,267,12.0,24.0,32,0.00,,CLR,0.00,VWS V14.01,2013-11-10 01:35:00,
2013-11-09 20:37:00,50.5,21.8,29.93,WSW,241,11.0,28.0,32,0.00,,CLR,0.00,VWS V14.01,2013-11-10 01:37:00,
2013-11-09 20:38:00,50.5,21.8,29.93,WNW,299,18.0,28.0,32,0.00,,CLR,0.00,VWS V14.01,2013-11-10 01:38:00,
2013-11-09 20:40:00,50.1,21.4,29.93,West,265,16.0,20.0,32,0.00,,CLR,0.00,VWS V14.01,2013-11-10 01:40:00,
2013-11-09 20:45:00,50.5,21.8,29.93,West,260,12.0,28.0,32,0.00,,CLR,0.00,VWS V14.01,2013-11-10 01:45:00,
2013-11-09 20:50:00,50.5,21.8,29.93,SW,236,10.0,24.0,32,0.00,,CLR,0.00,VWS V14.01,2013-11-10 01:50:00,
2013-11-09 20:55:00,50.5,21.8,29.93,West,275,13.0,24.0,32,0.00,,CLR,0.00,VWS V14.01,2013-11-10 01:55:00,
2013-11-09 21:00:00,50.6,21.9,29.93,WSW,256,11.0,27.0,32,0.00,,CLR,0.00,VWS V14.01,2013-11-10 02:00:00,
2013-11-09 21:05:00,50.7,21.9,29.93,West,268,31.0,31.0,32,0.00,,CLR,0.00,VWS V14.01,2013-11-10 02:05:00,
2013-11-09 21:10:00,50.9,22.1,29.93,WSW,257,15.0,26.0,32,0.00,,CLR,0.00,VWS V14.01,2013-11-10 02:10:00,
2013-11-09 21:15:00,50.6,21.9,29.93,West,259,10.0,26.0,32,0.00,,CLR,0.00,VWS V14.01,2013-11-10 02:15:00,
2013-11-09 21:20:00,50.9,22.1,29.93,WSW,239,13.0,26.0,32,0.00,,CLR,0.00,VWS V14.01,2013-11-10 02:20:00,
2013-11-09 21:25:00,50.8,22.0,29.92,West,259,17.0,27.0,32,0.00,,CLR,0.00,VWS V14.01,2013-11-10 02:25:00,
2013-11-09 21:29:00,50.6,21.9,29.92,WNW,291,22.0,33.0,32,0.00,,CLR,0.00,VWS V14.01,2013-11-10 02:29:00,
2013-11-09 21:30:00,50.6,21.9,29.92,West,271,20.0,21.0,32,0.00,,CLR,0.00,VWS V14.01,2013-11-10 02:30:00,
2013-11-09 21:34:00,50.5,22.5,29.92,WSW,250,18.0,27.0,33,0.00,,CLR,0.00,VWS V14.01,2013-11-10 02:34:00,
2013-11-09 21:35:00,50.6,21.9,29.92,WSW,248,27.0,30.0,32,0.00,,CLR,0.00,VWS V14.01,2013-11-10 02:35:00,
2013-11-09 21:38:00,50.6,21.9,29.92,WSW,241,24.0,27.0,32,0.00,,CLR,0.00,VWS V14.01,2013-11-10 02:38:00,
2013-11-09 21:40:00,50.6,21.9,29.92,West,259,12.0,21.0,32,0.00,,CLR,0.00,VWS V14.01,2013-11-10 02:40:00,
2013-11-09 21:42:00,50.5,22.5,29.92,WSW,254,20.0,28.0,33,0.00,,CLR,0.00,VWS V14.01,2013-11-10 02:42:00,
2013-11-09 21:45:00,50.6,21.9,29.92,West,259,14.0,27.0,32,0.00,,CLR,0.00,VWS V14.01,2013-11-10 02:45:00,
2013-11-09 21:50:00,50.5,22.5,29.92,West,263,21.0,22.0,33,0.00,,CLR,0.00,VWS V14.01,2013-11-10 02:50:00,
2013-11-09 21:51:00,50.4,22.4,29.92,WSW,258,18.0,31.0,33,0.00,,CLR,0.00,VWS V14.01,2013-11-10 02:51:00,
2013-11-09 21:55:00,50.1,22.1,29.92,WSW,254,15.0,31.0,33,0.00,,CLR,0.00,VWS V14.01,2013-11-10 02:55:00,
2013-11-09 21:56:00,50.5,22.5,29.92,WSW,242,25.0,31.0,33,0.00,,CLR,0.00,VWS V14.01,2013-11-10 02:56:00,
2013-11-09 21:58:00,50.0,22.8,29.92,WSW,257,24.0,31.0,34,0.00,,CLR,0.00,VWS V14.01,2013-11-10 02:58:00,
2013-11-09 21:59:00,50.0,22.0,29.92,WNW,285,17.0,31.0,33,0.00,,CLR,0.00,VWS V14.01,2013-11-10 02:59:00,
2013-11-09 22:01:00,50.4,22.4,29.92,WSW,248,16.0,31.0,33,0.00,,CLR,0.00,VWS V14.01,2013-11-10 03:01:00,
2013-11-09 22:02:00,50.1,22.1,29.92,West,272,11.0,28.0,33,0.00,,CLR,0.00,VWS V14.01,2013-11-10 03:02:00,
2013-11-09 22:03:00,50.0,22.8,29.92,WSW,255,17.0,28.0,34,0.00,,CLR,0.00,VWS V14.01,2013-11-10 03:03:00,
2013-11-09 22:06:00,50.0,22.8,29.92,West,259,13.0,31.0,34,0.00,,CLR,0.00,VWS V14.01,2013-11-10 03:06:00,
2013-11-09 22:11:00,50.1,22.8,29.92,WSW,257,20.0,28.0,34,0.00,,CLR,0.00,VWS V14.01,2013-11-10 03:11:00,
2013-11-09 22:16:00,50.0,22.8,29.92,West,275,16.0,28.0,34,0.00,,CLR,0.00,VWS V14.01,2013-11-10 03:16:00,
2013-11-09 22:21:00,50.1,22.8,29.92,West,260,19.0,28.0,34,0.00,,CLR,0.00,VWS V14.01,2013-11-10 03:21:00,
2013-11-09 22:23:00,50.0,23.4,29.91,West,268,17.0,25.0,35,0.00,,OVC060,0.00,VWS V14.01,2013-11-10 03:23:00,
2013-11-09 22:26:00,50.1,22.8,29.91,West,272,20.0,29.0,34,0.00,,CLR,0.00,VWS V14.01,2013-11-10 03:26:00,
2013-11-09 22:29:00,49.7,23.9,29.91,West,261,20.0,25.0,36,0.00,,OVC060,0.00,VWS V14.01,2013-11-10 03:29:00,
2013-11-09 22:31:00,50.0,22.8,29.91,SSW,213,10.0,25.0,34,0.00,,CLR,0.00,VWS V14.01,2013-11-10 03:31:00,
2013-11-09 22:32:00,49.8,23.9,29.91,West,269,20.0,29.0,36,0.00,,OVC060,0.00,VWS V14.01,2013-11-10 03:32:00,
2013-11-09 22:36:00,49.9,23.4,29.91,West,271,10.0,25.0,35,0.00,,OVC060,0.00,VWS V14.01,2013-11-10 03:36:00,
2013-11-09 22:38:00,49.7,24.5,29.91,WSW,252,24.0,29.0,37,0.00,,OVC060,0.00,VWS V14.01,2013-11-10 03:38:00,
2013-11-09 22:41:00,49.8,23.9,29.91,West,270,23.0,29.0,36,0.00,,OVC060,0.00,VWS V14.01,2013-11-10 03:41:00,
2013-11-09 22:46:00,49.7,24.5,29.91,West,261,20.0,29.0,37,0.00,,OVC060,0.00,VWS V14.01,2013-11-10 03:46:00,
2013-11-09 22:51:00,49.6,25.0,29.91,West,281,28.0,31.0,38,0.00,,OVC060,0.00,VWS V14.01,2013-11-10 03:51:00,
2013-11-09 22:52:00,49.6,25.7,29.89,NW,305,18.0,33.0,39,0.00,,OVC060,0.00,VWS V14.01,2013-11-10 03:52:00,
2013-11-09 22:56:00,49.5,25.0,29.89,WSW,255,14.0,31.0,38,0.00,,OVC060,0.00,VWS V14.01,2013-11-10 03:56:00,
2013-11-09 22:57:00,49.5,25.6,29.89,WSW,239,25.0,33.0,39,0.00,,OVC060,0.00,VWS V14.01,2013-11-10 03:57:00,
2013-11-09 23:01:00,49.5,25.6,29.89,West,267,21.0,33.0,39,0.00,,OVC060,0.00,VWS V14.01,2013-11-10 04:01:00,
2013-11-09 23:05:00,49.4,26.1,29.90,West,261,18.0,33.0,40,0.00,,OVC060,0.00,VWS V14.01,2013-11-10 04:05:00,
2013-11-09 23:06:00,49.5,25.6,29.89,West,261,21.0,33.0,39,0.00,,OVC060,0.00,VWS V14.01,2013-11-10 04:06:00,
2013-11-09 23:11:00,49.5,26.2,29.90,WSW,256,18.0,33.0,40,0.00,,OVC060,0.00,VWS V14.01,2013-11-10 04:11:00,
2013-11-09 23:14:00,49.0,26.3,29.89,West,265,19.0,28.0,41,0.00,,OVC060,0.00,VWS V14.01,2013-11-10 04:14:00,
2013-11-09 23:16:00,49.3,26.0,29.90,West,274,9.0,33.0,40,0.00,,OVC060,0.00,VWS V14.01,2013-11-10 04:16:00,
2013-11-09 23:18:00,49.1,27.0,29.89,West,259,18.0,28.0,42,0.00,,OVC060,0.00,VWS V14.01,2013-11-10 04:18:00,
2013-11-09 23:21:00,49.2,26.5,29.90,WSW,254,14.0,28.0,41,0.00,,OVC060,0.00,VWS V14.01,2013-11-10 04:21:00,
2013-11-09 23:23:00,49.1,27.0,29.89,WSW,242,12.0,31.0,42,0.00,,OVC070,0.00,VWS V14.01,2013-11-10 04:23:00,
2013-11-09 23:26:00,49.1,27.0,29.89,WSW,248,20.0,28.0,42,0.00,,OVC060,0.00,VWS V14.01,2013-11-10 04:26:00,
2013-11-09 23:31:00,49.1,27.0,29.89,West,281,16.0,31.0,42,0.00,,OVC060,0.00,VWS V14.01,2013-11-10 04:31:00,
2013-11-09 23:32:00,48.7,27.8,29.88,West,261,21.0,25.0,44,0.00,,OVC070,0.00,VWS V14.01,2013-11-10 04:32:00,
2013-11-09 23:36:00,48.8,27.3,29.89,West,267,20.0,31.0,43,0.00,,OVC070,0.00,VWS V14.01,2013-11-10 04:36:00,
2013-11-09 23:41:00,48.8,27.9,29.88,West,272,16.0,25.0,44,0.00,,OVC070,0.00,VWS V14.01,2013-11-10 04:41:00,
2013-11-09 23:45:00,48.7,28.3,29.88,West,273,11.0,28.0,45,0.00,,OVC070,0.00,VWS V14.01,2013-11-10 04:45:00,
2013-11-09 23:46:00,48.7,27.8,29.88,West,264,18.0,25.0,44,0.00,,OVC070,0.00,VWS V14.01,2013-11-10 04:46:00,
2013-11-09 23:51:00,48.7,28.3,29.88,West,264,14.0,23.0,45,0.00,,OVC070,0.00,VWS V14.01,2013-11-10 04:51:00,
2013-11-09 23:56:00,48.5,28.1,29.88,WSW,254,39.0,39.0,45,0.00,,OVC070,0.00,VWS V14.01,2013-11-10 04:56:00,
2013-11-09 23:58:00,48.3,28.5,29.88,WSW,253,12.0,29.0,46,0.00,,OVC070,0.00,VWS V14.01,2013-11-10 04:58:00,
2013-11-09 23:59:00,48.3,29.0,29.88,West,261,22.0,29.0,47,0.00,,OVC070,0.00,VWS V14.01,2013-11-10 04:59:00,